Latest Coastal Weather Observations for Larapuna (Eddystone Point)

IDT60701

Issued at 10:15 pm EST Monday 21 April 2014 (issued every 10 minutes, with the page automatically refreshed every 10 minutes)

About coastal observations | Map of coastal stations | Coastal observations for TAS | Marine services | Other Formats
Station Details ID: 092045 Name: LARAPUNA (EDDYSTONE POINT) Lat: -40.99 Lon: 148.35 Height: 19.7 m
Data from the previous 72 hours. | See also: Recent months at Larapuna (Eddystone Point)
Date/Time
EST
Temp

°C
Wind Pressure Rain
since 9am
mm
Weather Cloud Vis
km
Sea
Height
m
Swell
Dir
 
Speed
knots
Gust
knots
hPa Trend Height
m
Period
s
Dir
21/10:00pm 15.8 N 16 20 1013.0 - 2.0 - - - - - - -
21/09:30pm 15.9 N 12 16 1013.3 - 1.8 - - - - - - -
21/09:00pm 15.7 N 12 14 1013.4 - 1.8 - - - - - - -
21/08:30pm 15.6 N 12 16 1013.7 - 1.8 - - - - - - -
21/08:00pm 15.0 N 10 13 1014.0 - 1.8 - - - - - - -
21/07:30pm 14.5 NNW 13 17 1014.3 - 1.8 - - - - - - -
21/07:00pm 15.6 N 15 18 1014.1 - 1.0 - - - - - - -
21/06:30pm 15.2 N 16 20 1014.0 - 1.0 - - - - - - -
21/06:00pm 14.4 N 16 20 1014.2 - 1.0 - - - - - - -
21/05:30pm 14.5 N 17 22 1014.5 - 1.0 - - - - - - -
21/05:00pm 14.3 NNW 12 17 1014.8 - 1.0 - - - - - - -
21/04:30pm 13.6 N 7 10 1014.8 - 1.0 - - - - - - -
21/04:00pm 13.4 WNW 3 7 1015.3 - 0.8 - - - - - - -
21/03:30pm 13.6 N 5 6 1015.6 - 0.8 - - - - - - -
21/03:00pm 14.0 ENE 1 5 1015.8 - 0.8 - - - - - - -
21/02:30pm 13.9 SSE 2 5 1015.8 - 0.8 - - - - - - -
21/02:00pm 13.8 S 7 9 1016.2 - 0.8 - - - - - - -
21/01:30pm 12.9 SSW 9 11 1016.8 - 0.8 - - - - - - -
21/01:00pm 12.7 SSW 9 11 1017.0 - 0.8 - - - - - - -
21/12:30pm 12.0 S 9 12 1017.5 - 0.8 - - - - - - -
21/12:00pm 11.7 S 9 10 1017.9 - 0.8 - - - - - - -
21/11:30am 11.9 SSW 9 11 1018.1 - 0.8 - - - - - - -
21/11:00am 12.0 SSW 9 11 1018.4 - 0.2 - - - - - - -
21/10:30am 11.9 SSW 10 12 1018.7 - 0.2 - - - - - - -
21/10:00am 12.4 SSW 11 13 1018.8 - 0.0 - - - - - - -
21/09:30am 12.8 SSW 11 13 1019.1 - 0.0 - - - - - - -
21/09:00am 13.2 SSW 10 13 1019.0 - 0.0 - - - - - - -
21/08:30am 13.3 SW 10 13 1019.2 - 0.0 - - - - - - -
21/08:00am 13.4 ESE 7 9 1018.8 - 0.0 - - - - - - -
21/07:30am 12.8 ESE 6 9 1018.6 - 0.0 - - - - - - -
21/07:00am 12.2 ESE 7 9 1018.4 - 0.0 - - - - - - -
21/06:30am 11.7 SE 8 11 1018.2 - 0.0 - - - - - - -
21/06:00am 11.1 SSE 5 9 1017.9 - 0.0 - - - - - - -
21/05:30am 11.7 CALM 0 0 1017.8 - 0.0 - - - - - - -
21/05:00am 11.0 SSW 4 5 1017.3 - 0.0 - - - - - - -
21/04:30am 10.9 SSW 5 6 1017.0 - 0.0 - - - - - - -
21/04:00am 10.8 SSW 6 8 1016.8 - 0.0 - - - - - - -
21/03:30am 10.6 SSW 8 10 1016.5 - 0.0 - - - - - - -
21/03:00am 10.4 SW 7 9 1016.3 - 0.0 - - - - - - -
21/02:30am 10.0 SSW 8 9 1016.3 - 0.0 - - - - - - -
21/02:00am 10.2 W 11 13 1016.1 - 0.0 - - - - - - -
21/01:30am 10.3 WNW 12 15 1015.9 - 0.0 - - - - - - -
21/01:00am 10.3 WNW 11 12 1015.6 - 0.0 - - - - - - -
21/12:30am 10.5 WNW 10 11 1015.3 - 0.0 - - - - - - -
21/12:00am 11.0 WNW 11 13 1015.0 - 0.0 - - - - - - -
 
Date/Time
EST
Temp

°C
Wind Pressure Rain
since 9am
mm
Weather Cloud Vis
km
Sea
Height
m
Swell
Dir
 
Speed
knots
Gust
knots
hPa Trend Height
m
Period
s
Dir
20/11:30pm 11.3 WNW 10 11 1014.8 - 0.0 - - - - - - -
20/11:00pm 11.6 WNW 9 11 1014.6 - 0.0 - - - - - - -
20/10:30pm 12.2 WNW 10 12 1014.4 - 0.0 - - - - - - -
20/10:00pm 12.7 WNW 10 12 1014.3 - 0.0 - - - - - - -
20/09:30pm 12.8 WNW 10 11 1014.0 - 0.0 - - - - - - -
20/09:00pm 12.7 WNW 9 11 1013.9 - 0.0 - - - - - - -
20/08:30pm 12.9 NW 10 13 1013.5 - 0.0 - - - - - - -
20/08:00pm 13.3 NW 11 13 1013.1 - 0.0 - - - - - - -
20/07:30pm 13.6 NW 11 13 1012.9 - 0.0 - - - - - - -
20/07:00pm 13.5 NW 12 14 1012.7 - 0.0 - - - - - - -
20/06:30pm 13.4 NW 12 15 1012.3 - 0.0 - - - - - - -
20/06:00pm 13.6 WNW 16 22 1012.0 - 0.0 - - - - - - -
20/05:30pm 13.7 WNW 16 20 1011.6 - 0.0 - - - - - - -
20/05:00pm 14.4 WNW 19 25 1011.3 - 0.0 - - - - - - -
20/04:30pm 15.2 WNW 15 20 1011.3 - 0.0 - - - - - - -
20/04:02pm 15.8 WNW 18 28 1010.9 - 0.0 - - - - - - -
20/04:00pm 15.6 WNW 19 28 1010.9 - 0.0 - - - - - - -
20/03:32pm 17.3 WNW 15 25 1010.6 - 0.0 - - - - - - -
20/03:30pm 17.2 WNW 17 26 1010.6 - 0.0 - - - - - - -
20/03:06pm 15.6 WNW 18 28 1010.5 - 0.0 - - - - - - -
20/03:00pm 15.6 WNW 19 28 1010.5 - 0.0 - - - - - - -
20/02:43pm 16.4 W 17 27 1010.6 - 0.0 - - - - - - -
20/02:30pm 16.6 W 20 25 1010.6 - 0.0 - - - - - - -
20/02:00pm 15.7 W 20 25 1010.7 - 0.0 - - - - - - -
20/01:30pm 16.0 WNW 17 25 1010.8 - 0.0 - - - - - - -
20/01:00pm 16.7 WNW 17 23 1011.1 - 0.0 - - - - - - -
20/12:37pm 16.8 W 15 25 1011.4 - 0.0 - - - - - - -
20/12:30pm 17.0 W 15 20 1011.5 - 0.0 - - - - - - -
20/12:00pm 16.0 WNW 16 22 1011.9 - 0.0 - - - - - - -
20/11:30am 15.4 WNW 15 21 1012.3 - 0.0 - - - - - - -
20/11:00am 14.9 WNW 13 19 1012.8 - 0.0 - - - - - - -
20/10:30am 14.0 WNW 13 18 1013.0 - 0.0 - - - - - - -
20/10:00am 13.8 WNW 8 14 1013.4 - 0.0 - - - - - - -
20/09:30am 12.8 NW 6 9 1013.7 - 0.0 - - - - - - -
20/09:00am 11.8 WNW 5 7 1013.8 - 0.0 - - - - - - -
20/08:30am 10.9 W 7 9 1013.8 - 0.0 - - - - - - -
20/08:00am 10.7 W 7 9 1013.9 - 0.0 - - - - - - -
20/07:30am 8.6 WSW 6 6 1013.8 - 0.0 - - - - - - -
20/07:00am 7.6 WNW 6 8 1013.6 - 0.0 - - - - - - -
20/06:30am 7.5 WNW 8 10 1013.5 - 0.0 - - - - - - -
20/06:00am 8.0 WNW 8 10 1013.4 - 0.0 - - - - - - -
20/05:30am 7.7 W 6 8 1013.3 - 0.0 - - - - - - -
20/05:00am 8.3 W 7 9 1013.3 - 0.0 - - - - - - -
20/04:30am 9.5 WNW 7 10 1013.3 - 0.0 - - - - - - -
20/04:00am 8.7 WNW 7 9 1013.4 - 0.0 - - - - - - -
20/03:30am 9.6 W 8 11 1013.3 - 0.0 - - - - - - -
20/03:00am 9.7 WNW 9 11 1013.2 - 0.0 - - - - - - -
20/02:30am 9.3 WNW 9 10 1013.4 - 0.0 - - - - - - -
20/02:00am 10.2 WNW 9 12 1013.6 - 0.0 - - - - - - -
20/01:30am 10.1 WNW 10 11 1013.9 - 0.0 - - - - - - -
20/01:00am 9.6 WNW 9 10 1014.0 - 0.0 - - - - - - -
20/12:30am 10.1 W 10 11 1014.3 - 0.0 - - - - - - -
20/12:00am 9.0 W 9 10 1014.4 - 0.0 - - - - - - -
 
Date/Time
EST
Temp

°C
Wind Pressure Rain
since 9am
mm
Weather Cloud Vis
km
Sea
Height
m
Swell
Dir
 
Speed
knots
Gust
knots
hPa Trend Height
m
Period
s
Dir
19/11:30pm 8.7 WNW 9 10 1014.6 - 0.0 - - - - - - -
19/11:00pm 9.3 W 9 10 1014.7 - 0.0 - - - - - - -
19/10:30pm 9.1 W 10 11 1014.9 - 0.0 - - - - - - -
19/10:00pm 9.5 W 10 11 1015.2 - 0.0 - - - - - - -
19/09:30pm 10.3 NW 7 9 1015.3 - 0.0 - - - - - - -
19/09:00pm 10.1 NW 6 7 1015.4 - 0.0 - - - - - - -
19/08:30pm 10.3 NW 7 8 1015.3 - 0.0 - - - - - - -
19/08:00pm 10.6 NW 7 8 1015.2 - 0.0 - - - - - - -
19/07:30pm 10.7 WNW 8 10 1015.3 - 0.0 - - - - - - -
19/07:00pm 10.8 NW 7 9 1015.3 - 0.0 - - - - - - -
19/06:30pm 11.3 NW 7 8 1015.2 - 0.0 - - - - - - -
19/06:00pm 12.0 WNW 7 9 1014.9 - 0.0 - - - - - - -
19/05:30pm 12.9 NW 9 11 1014.8 - 0.0 - - - - - - -
19/05:00pm 14.4 N 4 8 1014.7 - 0.0 - - - - - - -
19/04:30pm 14.1 ENE 7 9 1014.6 - 0.0 - - - - - - -
19/04:00pm 15.2 NE 7 9 1014.7 - 0.0 - - - - - - -
19/03:30pm 15.5 NE 7 10 1014.8 - 0.0 - - - - - - -
19/03:00pm 15.7 NNE 7 9 1014.6 - 0.0 - - - - - - -
19/02:30pm 15.9 NNE 7 9 1014.6 - 0.0 - - - - - - -
19/02:00pm 16.2 NNE 6 8 1014.7 - 0.0 - - - - - - -
19/01:30pm 16.5 NNE 7 10 1014.7 - 0.0 - - - - - - -
19/01:00pm 16.3 S 5 6 1015.0 - 0.0 - - - - - - -
19/12:30pm 16.0 SSE 5 6 1015.3 - 0.0 - - - - - - -
19/12:00pm 15.6 S 4 7 1015.5 - 0.0 - - - - - - -
19/11:30am 15.5 SSW 4 6 1015.7 - 0.0 - - - - - - -
19/11:00am 15.1 S 5 7 1015.9 - 0.0 - - - - - - -
19/10:30am 14.8 SSW 5 8 1016.0 - 0.0 - - - - - - -
19/10:00am 14.0 SSW 10 15 1015.8 - 0.0 - - - - - - -
19/09:30am 13.3 WSW 7 11 1015.8 - 0.0 - - - - - - -
19/09:00am 12.2 W 8 10 1015.6 - 3.4 - - - - - - -
19/08:30am 10.9 W 8 11 1015.5 - 3.4 - - - - - - -
19/08:00am 9.4 W 8 11 1015.4 - 3.4 - - - - - - -
19/07:30am 8.3 W 11 14 1015.1 - 3.4 - - - - - - -
19/07:00am 6.7 W 12 16 1014.5 - 3.4 - - - - - - -
19/06:30am 6.6 W 13 16 1014.5 - 3.4 - - - - - - -
19/06:00am 6.4 W 11 14 1014.2 - 3.4 - - - - - - -
19/05:30am 6.9 W 13 16 1014.0 - 3.4 - - - - - - -
19/05:00am 6.7 W 11 14 1013.9 - 3.4 - - - - - - -
19/04:30am 7.2 W 12 14 1013.7 - 3.4 - - - - - - -
19/04:00am 7.8 W 12 15 1013.5 - 3.4 - - - - - - -
19/03:30am 7.7 W 12 15 1013.4 - 3.4 - - - - - - -
19/03:00am 7.7 W 12 14 1013.4 - 3.4 - - - - - - -
19/02:30am 7.8 W 11 15 1013.3 - 3.4 - - - - - - -
19/02:00am 8.2 W 12 15 1013.4 - 3.4 - - - - - - -
19/01:30am 8.6 WSW 13 17 1013.2 - 3.4 - - - - - - -
19/01:00am 8.3 W 14 17 1013.1 - 3.4 - - - - - - -
19/12:30am 8.9 WSW 10 13 1013.2 - 3.4 - - - - - - -
19/12:00am 9.5 SW 8 11 1013.3 - 3.4 - - - - - - -
 
Date/Time
EST
Temp

°C
Wind Pressure Rain
since 9am
mm
Weather Cloud Vis
km
Sea
Height
m
Swell
Dir
 
Speed
knots
Gust
knots
hPa Trend Height
m
Period
s
Dir
18/11:30pm 9.9 WSW 10 13 1013.2 - 3.4 - - - - - - -
18/11:00pm 8.5 W 10 13 1013.0 - 3.4 - - - - - - -
18/10:30pm 9.1 WSW 9 12 1013.1 - 3.4 - - - - - - -

Other Formats:

Comma delimited format used in spreadsheet applications
http://www.bom.gov.au/fwo/IDT60701/IDT60701.94983.axf

JavaScript Object Notation format (JSON) in row-major order
http://www.bom.gov.au/fwo/IDT60701/IDT60701.94983.json